createdAt,value
2017-03-20T00:07:34.824Z,0
2017-03-20T00:17:34.927Z,0
2017-03-20T00:27:34.853Z,0
2017-03-20T00:37:34.925Z,0
2017-03-20T00:47:34.895Z,0
2017-03-20T00:57:34.954Z,0
2017-03-20T01:07:34.935Z,0
2017-03-20T01:17:35.082Z,0
2017-03-20T01:27:34.962Z,0
2017-03-20T01:37:35.006Z,0
2017-03-20T01:47:34.972Z,0
2017-03-20T01:57:34.932Z,0
2017-03-20T02:07:35.007Z,0
2017-03-20T02:17:34.953Z,0
2017-03-20T02:27:35.018Z,0
2017-03-20T02:37:34.976Z,0
2017-03-20T02:47:35.090Z,0
2017-03-20T02:57:35.655Z,0
2017-03-20T03:07:35.038Z,0
2017-03-20T03:17:35.031Z,0
2017-03-20T03:27:35.090Z,0
2017-03-20T03:37:35.033Z,0
2017-03-20T03:47:35.118Z,0
2017-03-20T03:57:35.078Z,0
2017-03-20T04:07:35.165Z,0
2017-03-20T04:17:35.085Z,0
2017-03-20T04:27:35.038Z,0
2017-03-20T04:37:35.110Z,0
2017-03-20T04:47:35.069Z,0
2017-03-20T04:57:35.152Z,0
2017-03-20T05:07:35.096Z,0
2017-03-20T05:17:35.157Z,8
2017-03-20T05:27:37.861Z,32
2017-03-20T05:37:35.189Z,96
2017-03-20T05:47:44.805Z,200
2017-03-20T05:57:35.216Z,444
2017-03-20T06:07:35.163Z,692
2017-03-20T06:17:35.217Z,636
2017-03-20T06:27:35.224Z,740
2017-03-20T06:37:44.715Z,988
2017-03-20T06:47:35.214Z,1692
2017-03-20T06:57:35.155Z,1660
2017-03-20T07:07:35.309Z,2064
2017-03-20T07:17:35.217Z,2772
2017-03-20T07:27:35.267Z,2940
2017-03-20T07:37:35.218Z,3392
2017-03-20T07:47:35.945Z,3360
2017-03-20T07:57:35.982Z,4316
2017-03-20T08:07:35.463Z,3680
2017-03-20T08:17:35.610Z,3192
2017-03-20T08:27:35.376Z,6932
2017-03-20T08:37:35.311Z,4696
2017-03-20T08:47:35.619Z,5328
2017-03-20T08:57:35.348Z,8348
2017-03-20T09:07:35.295Z,6224
2017-03-20T09:17:35.305Z,7568
2017-03-20T09:27:35.294Z,8408
2017-03-20T09:37:35.333Z,8492
2017-03-20T09:47:35.382Z,5540
2017-03-20T09:57:35.502Z,5348
2017-03-20T10:07:35.328Z,4804
2017-03-20T10:17:35.318Z,4984
2017-03-20T10:27:36.069Z,7060
2017-03-20T10:37:35.376Z,7244
2017-03-20T10:47:35.374Z,11076
2017-03-20T10:57:35.358Z,9388
2017-03-20T11:07:35.419Z,11020
2017-03-20T11:17:35.409Z,10352
2017-03-20T11:27:35.394Z,12784
2017-03-20T11:37:35.424Z,10244
2017-03-20T11:47:35.423Z,9724
2017-03-20T11:57:35.479Z,7884
2017-03-20T12:07:35.505Z,12156
2017-03-20T12:27:37.751Z,15572
2017-03-20T12:37:35.657Z,14700
2017-03-20T12:47:35.520Z,8580
2017-03-20T12:57:35.657Z,6976
2017-03-20T13:07:36.467Z,7784
2017-03-20T13:17:35.641Z,9716
2017-03-20T13:27:35.590Z,7348
2017-03-20T13:37:35.884Z,9416
2017-03-20T13:47:35.585Z,7536
2017-03-20T13:57:35.666Z,8984
2017-03-20T14:07:35.630Z,6912
2017-03-20T14:17:35.724Z,6040
2017-03-20T14:27:35.674Z,5676
2017-03-20T14:37:35.693Z,4280
2017-03-20T14:47:35.752Z,4560
2017-03-20T14:57:35.799Z,5312
2017-03-20T15:07:35.714Z,4028
2017-03-20T15:17:35.769Z,4528
2017-03-20T15:27:35.856Z,3376
2017-03-20T15:37:35.697Z,3692
2017-03-20T15:47:35.742Z,2292
2017-03-20T15:57:36.223Z,2344
2017-03-20T16:07:35.744Z,1856
2017-03-20T16:17:35.762Z,1680
2017-03-20T16:27:35.871Z,1156
2017-03-20T16:37:35.786Z,1168
2017-03-20T16:47:35.944Z,628
2017-03-20T16:57:35.821Z,456
2017-03-20T17:07:35.866Z,676
2017-03-20T17:17:35.803Z,368
2017-03-20T17:27:35.874Z,340
2017-03-20T17:37:36.051Z,92
2017-03-20T17:47:35.825Z,48
2017-03-20T17:57:35.946Z,12
2017-03-20T18:07:35.913Z,4
2017-03-20T18:17:36.276Z,0
2017-03-20T18:27:36.393Z,0
2017-03-20T18:37:36.150Z,0
2017-03-20T18:47:36.146Z,0
2017-03-20T18:57:35.870Z,0
2017-03-20T19:07:36.207Z,0
2017-03-20T19:17:36.069Z,0
2017-03-20T19:27:35.985Z,0
2017-03-20T19:37:36.103Z,0
2017-03-20T19:47:36.690Z,0
2017-03-20T19:57:36.329Z,0
2017-03-20T20:07:36.097Z,0
2017-03-20T20:17:36.479Z,0
2017-03-20T20:27:36.396Z,0
2017-03-20T20:37:36.076Z,0
2017-03-20T20:47:36.190Z,0
2017-03-20T20:57:36.306Z,0
2017-03-20T21:07:36.434Z,0
2017-03-20T21:17:36.251Z,0
2017-03-20T21:27:56.721Z,0
2017-03-20T21:37:56.797Z,0
2017-03-20T21:47:56.752Z,0
2017-03-20T21:57:56.796Z,0
2017-03-20T22:07:56.996Z,0
2017-03-20T22:17:56.729Z,0
2017-03-20T22:27:56.752Z,0
2017-03-20T22:37:56.731Z,0
2017-03-20T22:47:56.691Z,0
2017-03-20T22:57:57.097Z,0
2017-03-20T23:07:56.850Z,0
2017-03-20T23:17:56.789Z,0
2017-03-20T23:27:56.849Z,0
2017-03-20T23:37:57.191Z,0
2017-03-20T23:47:56.813Z,0
2017-03-20T23:57:56.750Z,0
